createdAt,value
2016-06-11T00:00:38.214Z,0
2016-06-11T00:01:37.920Z,0
2016-06-11T00:02:38.251Z,0
2016-06-11T00:03:38.457Z,0
2016-06-11T00:04:38.101Z,0
2016-06-11T00:05:38.260Z,0
2016-06-11T00:06:38.279Z,0
2016-06-11T00:07:38.486Z,0
2016-06-11T00:08:38.285Z,0
2016-06-11T00:09:38.304Z,0
2016-06-11T00:10:38.525Z,0
2016-06-11T00:11:38.309Z,0
2016-06-11T00:12:38.313Z,0
2016-06-11T00:13:39.566Z,0
2016-06-11T00:14:39.069Z,0
2016-06-11T00:15:38.197Z,0
2016-06-11T00:16:38.356Z,0
2016-06-11T00:17:38.438Z,0
2016-06-11T00:18:38.425Z,0
2016-06-11T00:19:38.569Z,0
2016-06-11T00:20:38.384Z,0
2016-06-11T00:21:38.450Z,0
2016-06-11T00:22:52.469Z,0
2016-06-11T00:23:38.690Z,0
2016-06-11T00:24:38.412Z,0
2016-06-11T00:25:38.416Z,0
2016-06-11T00:26:38.434Z,0
2016-06-11T00:27:38.641Z,0
2016-06-11T00:28:38.565Z,0
2016-06-11T00:29:38.490Z,0
2016-06-11T00:30:38.462Z,0
2016-06-11T00:31:38.496Z,0
2016-06-11T00:32:38.671Z,0
2016-06-11T00:33:38.534Z,0
2016-06-11T00:34:38.490Z,0
2016-06-11T00:35:38.524Z,0
2016-06-11T00:36:38.544Z,0
2016-06-11T00:37:38.546Z,0
2016-06-11T00:38:38.378Z,0
2016-06-11T00:39:38.598Z,0
2016-06-11T00:40:38.962Z,0
2016-06-11T00:41:38.590Z,0
2016-06-11T00:43:38.565Z,0
2016-06-11T00:44:38.474Z,0
2016-06-11T00:45:38.805Z,0
2016-06-11T00:46:38.808Z,0
2016-06-11T00:47:38.812Z,0
2016-06-11T00:48:38.595Z,0
2016-06-11T00:49:38.645Z,0
2016-06-11T00:50:38.602Z,0
2016-06-11T00:51:38.652Z,0
2016-06-11T00:52:38.623Z,0
2016-06-11T00:53:38.674Z,0
2016-06-11T00:54:38.864Z,0
2016-06-11T00:55:38.664Z,0
2016-06-11T00:56:38.667Z,0
2016-06-11T00:57:38.685Z,0
2016-06-11T00:58:38.657Z,0
2016-06-11T00:59:38.598Z,0
2016-06-11T01:00:38.742Z,0
2016-06-11T01:01:38.713Z,0
2016-06-11T01:02:38.716Z,0
2016-06-11T01:03:38.751Z,0
2016-06-11T01:04:38.723Z,0
2016-06-11T01:05:38.741Z,0
2016-06-11T01:06:38.729Z,0
2016-06-11T01:07:38.763Z,0
2016-06-11T01:08:38.782Z,0
2016-06-11T01:09:38.770Z,0
2016-06-11T01:10:38.773Z,0
2016-06-11T01:11:39.010Z,0
2016-06-11T01:12:38.794Z,0
2016-06-11T01:14:39.644Z,0
2016-06-11T01:15:38.803Z,0
2016-06-11T01:16:38.822Z,0
2016-06-11T01:17:38.826Z,0
2016-06-11T01:18:38.891Z,0
2016-06-11T01:19:38.846Z,0
2016-06-11T01:20:38.882Z,0
2016-06-11T01:21:38.947Z,0
2016-06-11T01:22:38.855Z,0
2016-06-11T01:23:38.875Z,0
2016-06-11T01:24:38.877Z,0
2016-06-11T01:25:39.100Z,0
2016-06-11T01:26:38.884Z,0
2016-06-11T01:27:38.950Z,0
2016-06-11T01:28:38.906Z,0
2016-06-11T01:29:53.924Z,0
2016-06-11T01:30:39.147Z,0
2016-06-11T01:31:38.930Z,0
2016-06-11T01:32:39.372Z,0
2016-06-11T01:33:38.952Z,0
2016-06-11T01:34:38.955Z,0
2016-06-11T01:35:38.990Z,0
2016-06-11T01:36:38.962Z,0
2016-06-11T01:37:38.996Z,0
2016-06-11T01:38:38.984Z,0
2016-06-11T01:39:39.237Z,0
2016-06-11T01:40:39.021Z,0
2016-06-11T01:41:38.509Z,0
2016-06-11T01:42:39.074Z,0
2016-06-11T01:43:39.014Z,0
2016-06-11T01:44:39.237Z,0
2016-06-11T01:45:39.036Z,0
2016-06-11T01:46:39.040Z,0
2016-06-11T01:47:39.276Z,0
2016-06-11T01:48:39.295Z,0
2016-06-11T01:49:39.064Z,0
2016-06-11T01:50:38.911Z,0
2016-06-11T01:51:39.085Z,0
2016-06-11T01:52:39.089Z,0
2016-06-11T01:53:38.951Z,0
2016-06-11T01:54:39.111Z,0
2016-06-11T01:55:38.817Z,0
2016-06-11T01:56:39.117Z,0
2016-06-11T01:57:39.120Z,0
2016-06-11T01:58:39.170Z,0
2016-06-11T01:59:39.188Z,0
2016-06-11T02:00:39.208Z,0
2016-06-11T02:01:39.179Z,0
2016-06-11T02:02:39.370Z,0
2016-06-11T02:03:39.607Z,0
2016-06-11T02:04:39.189Z,0
2016-06-11T02:05:39.192Z,0
2016-06-11T02:06:38.726Z,0
2016-06-11T02:07:39.213Z,0
2016-06-11T02:08:39.216Z,0
2016-06-11T02:09:39.236Z,0
2016-06-11T02:10:39.254Z,0
2016-06-11T02:11:39.428Z,0
2016-06-11T02:12:39.432Z,0
2016-06-11T02:13:39.263Z,0
2016-06-11T02:14:39.235Z,0
2016-06-11T02:15:39.268Z,4
2016-06-11T02:16:39.288Z,4
2016-06-11T02:17:39.291Z,0
2016-06-11T02:18:39.341Z,0
2016-06-11T02:20:39.300Z,4
2016-06-11T02:21:39.319Z,0
2016-06-11T02:22:39.322Z,4
2016-06-11T02:23:39.544Z,4
2016-06-11T02:24:39.328Z,4
2016-06-11T02:25:39.331Z,4
2016-06-11T02:26:39.366Z,8
2016-06-11T02:27:39.572Z,4
2016-06-11T02:28:39.355Z,8
2016-06-11T02:29:39.000Z,8
2016-06-11T02:30:39.377Z,8
2016-06-11T02:31:39.397Z,12
2016-06-11T02:32:39.275Z,12
2016-06-11T02:33:39.621Z,12
2016-06-11T02:34:39.249Z,16
2016-06-11T02:35:39.424Z,16
2016-06-11T02:36:39.271Z,20
2016-06-11T02:37:53.508Z,24
2016-06-11T02:38:39.434Z,24
2016-06-11T02:39:39.452Z,24
2016-06-11T02:40:39.642Z,32
2016-06-11T02:41:53.536Z,36
2016-06-11T02:42:39.477Z,40
2016-06-11T02:43:39.512Z,44
2016-06-11T02:44:53.108Z,52
2016-06-11T02:45:39.532Z,56
2016-06-11T02:46:39.489Z,60
2016-06-11T02:47:39.508Z,68
2016-06-11T02:48:39.511Z,76
2016-06-11T02:49:39.577Z,84
2016-06-11T02:50:39.533Z,92
2016-06-11T02:51:39.536Z,100
2016-06-11T02:52:39.524Z,108
2016-06-11T02:53:39.807Z,120
2016-06-11T02:54:39.576Z,132
2016-06-11T02:55:39.580Z,140
2016-06-11T02:56:39.770Z,160
2016-06-11T02:57:39.601Z,168
2016-06-11T02:58:39.589Z,180
2016-06-11T02:59:39.592Z,192
2016-06-11T03:00:39.611Z,204
2016-06-11T03:01:39.598Z,220
2016-06-11T03:02:39.618Z,236
2016-06-11T03:03:39.666Z,252
2016-06-11T03:04:40.294Z,268
2016-06-11T03:05:39.642Z,284
2016-06-11T03:06:39.847Z,300
2016-06-11T03:07:39.694Z,316
2016-06-11T03:08:39.667Z,336
2016-06-11T03:09:39.514Z,360
2016-06-11T03:10:39.673Z,388
2016-06-11T03:11:39.690Z,420
2016-06-11T03:12:39.693Z,456
2016-06-11T03:13:39.916Z,492
2016-06-11T03:14:39.950Z,528
2016-06-11T03:15:39.922Z,560
2016-06-11T03:16:39.722Z,596
2016-06-11T03:17:39.725Z,632
2016-06-11T03:18:40.009Z,676
2016-06-11T03:19:39.795Z,716
2016-06-11T03:20:39.765Z,764
2016-06-11T03:21:39.753Z,816
2016-06-11T03:22:39.663Z,868
2016-06-11T03:23:39.775Z,912
2016-06-11T03:24:39.980Z,952
2016-06-11T03:26:39.784Z,1004
2016-06-11T03:27:39.819Z,1028
2016-06-11T03:28:39.822Z,1052
2016-06-11T03:29:40.200Z,1084
2016-06-11T03:30:40.937Z,1132
2016-06-11T03:31:39.831Z,1192
2016-06-11T03:33:39.853Z,1388
2016-06-11T03:34:39.591Z,1504
2016-06-11T03:35:39.874Z,1616
2016-06-11T03:36:39.425Z,1692
2016-06-11T03:37:39.881Z,1744
2016-06-11T03:38:39.883Z,1772
2016-06-11T03:39:39.887Z,1792
2016-06-11T03:40:53.984Z,1812
2016-06-11T03:41:39.924Z,1836
2016-06-11T03:42:39.911Z,1872
2016-06-11T03:43:39.930Z,1928
2016-06-11T03:44:39.933Z,1988
2016-06-11T03:45:39.827Z,2072
2016-06-11T03:46:54.017Z,2212
2016-06-11T03:47:39.959Z,2304
2016-06-11T03:48:39.962Z,2412
2016-06-11T03:49:40.449Z,2504
2016-06-11T03:50:40.014Z,2596
2016-06-11T03:52:40.052Z,2760
2016-06-11T03:53:39.539Z,2840
2016-06-11T03:54:39.855Z,2908
2016-06-11T03:55:40.045Z,2960
2016-06-11T03:56:39.564Z,2996
2016-06-11T03:57:40.051Z,3020
2016-06-11T03:58:40.243Z,3016
2016-06-11T03:59:41.573Z,2992
2016-06-11T04:00:40.326Z,2980
2016-06-11T04:01:39.626Z,2980
2016-06-11T04:02:40.066Z,2992
2016-06-11T04:03:40.085Z,3004
2016-06-11T04:04:40.103Z,3012
2016-06-11T04:05:40.123Z,3032
2016-06-11T04:06:40.126Z,3040
2016-06-11T04:07:40.128Z,3044
2016-06-11T04:08:40.116Z,3048
2016-06-11T04:09:40.151Z,3060
2016-06-11T04:10:39.654Z,3084
2016-06-11T04:11:40.579Z,3116
2016-06-11T04:12:40.160Z,3164
2016-06-11T04:13:40.178Z,3200
2016-06-11T04:14:40.870Z,3228
2016-06-11T04:15:40.528Z,3256
2016-06-11T04:16:40.187Z,3280
2016-06-11T04:17:40.223Z,3304
2016-06-11T04:18:40.209Z,3344
2016-06-11T04:19:40.228Z,3416
2016-06-11T04:20:40.247Z,3528
2016-06-11T04:21:40.453Z,3672
2016-06-11T04:22:54.316Z,3876
2016-06-11T04:23:40.256Z,3992
2016-06-11T04:24:40.291Z,4124
2016-06-11T04:25:40.512Z,4232
2016-06-11T04:26:39.625Z,4308
2016-06-11T04:27:40.284Z,4352
2016-06-11T04:28:40.913Z,4368
2016-06-11T04:29:40.305Z,4388
2016-06-11T04:30:40.513Z,4408
2016-06-11T04:31:40.516Z,4444
2016-06-11T04:32:40.190Z,4512
2016-06-11T04:33:40.365Z,4636
2016-06-11T04:34:40.353Z,4780
2016-06-11T04:36:40.609Z,5072
2016-06-11T04:37:40.362Z,5156
2016-06-11T04:38:40.365Z,5188
2016-06-11T04:39:40.383Z,5184
2016-06-11T04:40:40.668Z,5144
2016-06-11T04:41:40.406Z,5116
2016-06-11T04:42:40.408Z,5132
2016-06-11T04:43:40.473Z,5176
2016-06-11T04:44:40.868Z,5228
2016-06-11T04:45:40.354Z,5288
2016-06-11T04:46:40.467Z,5372
2016-06-11T04:47:40.471Z,5472
2016-06-11T04:48:54.536Z,5632
2016-06-11T04:49:40.664Z,5720
2016-06-11T04:50:40.324Z,5796
2016-06-11T04:51:40.530Z,5848
2016-06-11T04:52:40.486Z,5888
2016-06-11T04:53:40.365Z,5928
2016-06-11T04:54:40.492Z,5944
2016-06-11T04:55:40.526Z,5956
2016-06-11T04:56:40.560Z,5968
2016-06-11T04:57:40.579Z,6028
2016-06-11T04:58:40.552Z,6132
2016-06-11T04:59:40.586Z,6280
2016-06-11T05:00:40.791Z,6432
2016-06-11T05:01:40.811Z,6588
2016-06-11T05:02:40.814Z,6748
2016-06-11T05:03:40.582Z,6908
2016-06-11T05:04:40.632Z,7020
2016-06-11T05:05:40.651Z,7068
2016-06-11T05:07:40.673Z,7060
2016-06-11T05:08:40.629Z,7056
2016-06-11T05:09:40.508Z,7044
2016-06-11T05:10:40.197Z,7064
2016-06-11T05:11:40.685Z,7056
2016-06-11T05:12:40.673Z,7048
2016-06-11T05:13:40.519Z,7040
2016-06-11T05:14:40.554Z,7016
2016-06-11T05:15:41.354Z,7016
2016-06-11T05:16:41.013Z,6996
2016-06-11T05:17:40.750Z,7012
2016-06-11T05:18:40.738Z,7036
2016-06-11T05:19:40.960Z,7068
2016-06-11T05:20:40.776Z,7132
2016-06-11T05:21:40.794Z,7208
2016-06-11T05:22:40.765Z,7280
2016-06-11T05:23:40.785Z,7372
2016-06-11T05:24:40.818Z,7444
2016-06-11T05:25:40.822Z,7508
2016-06-11T05:26:41.200Z,7540
2016-06-11T05:27:40.812Z,7584
2016-06-11T05:28:41.034Z,7596
2016-06-11T05:29:40.834Z,7608
2016-06-11T05:30:40.837Z,7656
2016-06-11T05:31:40.871Z,7732
2016-06-11T05:32:40.890Z,7892
2016-06-11T05:33:40.877Z,8100
2016-06-11T05:34:40.896Z,8328
2016-06-11T05:35:40.947Z,8576
2016-06-11T05:36:41.105Z,8820
2016-06-11T05:37:40.936Z,9008
2016-06-11T05:38:40.472Z,9180
2016-06-11T05:39:40.942Z,9304
2016-06-11T05:41:41.012Z,9556
2016-06-11T05:42:40.968Z,9716
2016-06-11T05:43:55.049Z,9908
2016-06-11T05:44:41.177Z,10036
2016-06-11T05:45:41.228Z,10156
2016-06-11T05:46:41.011Z,10252
2016-06-11T05:47:40.999Z,10308
2016-06-11T05:48:41.048Z,10348
2016-06-11T05:49:41.037Z,10380
2016-06-11T05:50:41.086Z,10400
2016-06-11T05:51:40.901Z,10404
2016-06-11T05:52:41.061Z,10400
2016-06-11T05:53:41.283Z,10368
2016-06-11T05:54:41.286Z,10328
2016-06-11T05:55:41.085Z,10304
2016-06-11T05:56:41.154Z,10348
2016-06-11T05:57:41.215Z,10388
2016-06-11T05:58:41.461Z,10412
2016-06-11T05:59:41.301Z,10420
2016-06-11T06:00:41.940Z,10448
2016-06-11T06:01:41.601Z,10528
2016-06-11T06:02:40.901Z,10668
2016-06-11T06:03:41.277Z,10760
2016-06-11T06:04:41.717Z,10744
2016-06-11T06:05:41.485Z,10756
2016-06-11T06:06:41.510Z,10720
2016-06-11T06:07:41.268Z,10656
2016-06-11T06:08:41.762Z,10532
2016-06-11T06:09:41.801Z,10392
2016-06-11T06:10:41.888Z,10268
2016-06-11T06:11:55.690Z,10212
2016-06-11T06:12:55.726Z,10176
2016-06-11T06:13:41.622Z,10252
2016-06-11T06:14:41.627Z,10392
2016-06-11T06:15:42.601Z,10560
2016-06-11T06:16:42.042Z,10692
2016-06-11T06:17:41.859Z,10764
2016-06-11T06:18:41.721Z,10816
2016-06-11T06:19:41.913Z,10900
2016-06-11T06:20:41.698Z,11044
2016-06-11T06:21:41.952Z,11220
2016-06-11T06:22:41.642Z,11368
2016-06-11T06:23:42.130Z,11444
2016-06-11T06:24:41.772Z,11364
2016-06-11T06:25:41.964Z,11240
2016-06-11T06:26:41.795Z,11068
2016-06-11T06:27:41.782Z,10856
2016-06-11T06:28:41.785Z,10600
2016-06-11T06:29:41.804Z,10452
2016-06-11T06:30:41.854Z,10356
2016-06-11T06:31:41.794Z,10344
2016-06-11T06:32:41.814Z,10232
2016-06-11T06:33:41.832Z,10140
2016-06-11T06:34:42.100Z,10028
2016-06-11T06:35:42.010Z,9964
2016-06-11T06:36:41.795Z,9904
2016-06-11T06:37:41.625Z,9984
2016-06-11T06:38:41.754Z,10056
2016-06-11T06:39:42.382Z,10096
2016-06-11T06:40:42.166Z,10052
2016-06-11T06:41:41.935Z,9904
2016-06-11T06:42:41.923Z,9760
2016-06-11T06:43:41.956Z,9708
2016-06-11T06:44:42.022Z,9924
2016-06-11T06:45:42.619Z,10292
2016-06-11T06:46:41.998Z,10856
2016-06-11T06:47:42.001Z,11508
2016-06-11T06:48:42.003Z,12056
2016-06-11T06:49:42.256Z,12544
2016-06-11T06:50:41.885Z,12832
2016-06-11T06:51:42.075Z,13056
2016-06-11T06:52:42.108Z,13184
2016-06-11T06:53:42.097Z,13272
2016-06-11T06:54:42.100Z,13324
2016-06-11T06:55:42.103Z,13332
2016-06-11T06:56:42.090Z,13300
2016-06-11T06:57:42.141Z,13288
2016-06-11T06:58:42.143Z,13276
2016-06-11T06:59:42.146Z,13300
2016-06-11T07:00:42.384Z,13352
2016-06-11T07:01:42.152Z,13400
2016-06-11T07:02:56.250Z,13472
2016-06-11T07:03:42.424Z,13496
2016-06-11T07:04:42.053Z,13492
2016-06-11T07:05:42.149Z,13428
2016-06-11T07:06:42.434Z,13348
2016-06-11T07:07:42.280Z,13232
2016-06-11T07:08:42.252Z,13176
2016-06-11T07:09:42.255Z,13116
2016-06-11T07:10:42.305Z,13124
2016-06-11T07:11:42.308Z,13180
2016-06-11T07:12:57.405Z,13240
2016-06-11T07:13:42.939Z,13272
2016-06-11T07:14:42.349Z,13320
2016-06-11T07:15:42.711Z,13388
2016-06-11T07:16:42.557Z,13460
2016-06-11T07:17:42.389Z,13552
2016-06-11T07:18:42.392Z,13672
2016-06-11T07:19:42.598Z,13824
2016-06-11T07:20:56.492Z,14008
2016-06-11T07:21:42.605Z,14136
2016-06-11T07:22:42.654Z,14352
2016-06-11T07:23:42.814Z,14580
2016-06-11T07:24:42.410Z,14804
2016-06-11T07:27:42.529Z,15296
2016-06-11T07:28:42.533Z,15264
2016-06-11T07:29:43.083Z,15264
2016-06-11T07:30:44.007Z,15060
2016-06-11T07:31:42.729Z,15020
2016-06-11T07:32:42.731Z,15012
2016-06-11T07:33:42.579Z,15004
2016-06-11T07:34:42.551Z,15000
2016-06-11T07:35:42.960Z,14984
2016-06-11T07:36:42.401Z,14924
2016-06-11T07:37:43.013Z,14852
2016-06-11T07:38:42.625Z,14808
2016-06-11T07:39:56.457Z,14764
2016-06-11T07:40:42.631Z,14752
2016-06-11T07:41:42.572Z,14764
2016-06-11T07:42:43.451Z,14856
2016-06-11T07:43:42.688Z,15012
2016-06-11T07:44:42.393Z,15360
2016-06-11T07:45:57.069Z,15648
2016-06-11T07:46:42.791Z,15840
2016-06-11T07:47:42.966Z,16000
2016-06-11T07:48:43.391Z,16128
2016-06-11T07:49:42.956Z,16192
2016-06-11T07:50:43.053Z,16288
2016-06-11T07:51:42.962Z,16384
2016-06-11T07:52:42.981Z,16480
2016-06-11T07:53:42.969Z,16544
2016-06-11T07:54:42.816Z,16576
2016-06-11T07:55:43.052Z,16640
2016-06-11T07:56:42.352Z,16640
2016-06-11T07:57:42.825Z,16640
2016-06-11T07:58:42.890Z,16640
2016-06-11T07:59:42.878Z,16576
2016-06-11T08:00:42.990Z,16544
2016-06-11T08:01:43.181Z,16544
2016-06-11T08:02:43.309Z,16576
2016-06-11T08:03:56.999Z,16736
2016-06-11T08:04:43.205Z,16864
2016-06-11T08:05:43.241Z,17056
2016-06-11T08:06:42.930Z,17248
2016-06-11T08:07:42.840Z,17600
2016-06-11T08:08:43.155Z,17792
2016-06-11T08:09:42.955Z,18016
2016-06-11T08:10:43.208Z,18080
2016-06-11T08:11:57.087Z,18048
2016-06-11T08:12:57.121Z,18080
2016-06-11T08:13:45.107Z,18048
2016-06-11T08:14:43.330Z,18112
2016-06-11T08:15:44.224Z,18080
2016-06-11T08:16:57.180Z,18272
2016-06-11T08:18:43.312Z,18336
2016-06-11T08:19:43.564Z,18368
2016-06-11T08:20:42.989Z,18496
2016-06-11T08:21:43.148Z,18656
2016-06-11T08:22:57.464Z,18848
2016-06-11T08:24:43.408Z,19232
2016-06-11T08:25:43.411Z,19360
2016-06-11T08:26:43.383Z,19424
2016-06-11T08:27:43.636Z,19392
2016-06-11T08:28:43.451Z,19296
2016-06-11T08:29:43.860Z,19232
2016-06-11T08:30:43.410Z,19200
2016-06-11T08:31:43.179Z,19232
2016-06-11T08:32:43.479Z,19328
2016-06-11T08:33:43.966Z,19392
2016-06-11T08:34:57.407Z,19552
2016-06-11T08:35:43.504Z,19648
2016-06-11T08:36:43.070Z,19808
2016-06-11T08:37:43.369Z,19968
2016-06-11T08:38:43.137Z,20032
2016-06-11T08:39:57.860Z,20064
2016-06-11T08:40:43.426Z,20064
2016-06-11T08:41:43.804Z,20032
2016-06-11T08:42:58.135Z,20096
2016-06-11T08:43:42.982Z,20128
2016-06-11T08:44:43.485Z,20224
2016-06-11T08:45:44.597Z,20256
2016-06-11T08:46:43.959Z,20160
2016-06-11T08:47:57.572Z,19968
2016-06-11T08:48:43.543Z,19776
2016-06-11T08:49:43.546Z,19488
2016-06-11T08:50:43.565Z,19360
2016-06-11T08:51:44.163Z,19264
2016-06-11T08:52:43.072Z,19264
2016-06-11T08:53:43.606Z,19264
2016-06-11T08:54:57.937Z,19296
2016-06-11T08:55:43.581Z,19296
2016-06-11T08:56:43.615Z,19264
2016-06-11T08:57:43.868Z,19200
2016-06-11T08:58:57.590Z,19072
2016-06-11T08:59:43.657Z,19008
2016-06-11T09:00:43.565Z,18912
2016-06-11T09:01:44.959Z,18816
2016-06-11T09:02:43.946Z,18816
2016-06-11T09:03:43.980Z,18848
2016-06-11T09:04:44.186Z,18912
2016-06-11T09:05:43.940Z,19008
2016-06-11T09:06:58.068Z,19136
2016-06-11T09:07:44.398Z,19200
2016-06-11T09:08:43.809Z,19264
2016-06-11T09:09:43.671Z,19392
2016-06-11T09:10:43.799Z,19488
2016-06-11T09:11:43.833Z,19584
2016-06-11T09:12:44.992Z,19712
2016-06-11T09:13:43.418Z,19840
2016-06-11T09:14:43.889Z,19936
2016-06-11T09:15:45.251Z,20064
2016-06-11T09:16:44.239Z,20192
2016-06-11T09:17:43.961Z,20224
2016-06-11T09:18:58.058Z,20288
2016-06-11T09:19:44.233Z,20320
2016-06-11T09:20:43.689Z,20352
2016-06-11T09:21:44.316Z,20352
2016-06-11T09:22:44.023Z,20320
2016-06-11T09:23:44.058Z,20160
2016-06-11T09:24:44.279Z,20288
2016-06-11T09:25:44.267Z,20608
2016-06-11T09:26:44.068Z,21056
2016-06-11T09:27:44.273Z,21664
2016-06-11T09:28:44.089Z,22048
2016-06-11T09:29:58.201Z,22464
2016-06-11T09:30:44.298Z,22496
2016-06-11T09:31:44.364Z,22368
2016-06-11T09:32:44.383Z,22368
2016-06-11T09:33:44.182Z,22368
2016-06-11T09:34:44.373Z,22432
2016-06-11T09:35:58.360Z,22432
2016-06-11T09:36:44.395Z,22304
2016-06-11T09:37:44.491Z,22144
2016-06-11T09:38:44.854Z,22080
2016-06-11T09:39:58.341Z,21984
2016-06-11T09:40:44.189Z,21728
2016-06-11T09:41:44.472Z,21184
2016-06-11T09:42:44.288Z,20576
2016-06-11T09:43:44.588Z,19904
2016-06-11T09:44:44.763Z,19296
2016-06-11T09:45:44.563Z,18688
2016-06-11T09:46:58.644Z,18240
2016-06-11T09:47:59.335Z,18016
2016-06-11T09:48:58.681Z,17728
2016-06-11T09:49:44.419Z,17664
2016-06-11T09:50:44.406Z,17376
2016-06-11T09:51:44.253Z,17216
2016-06-11T09:52:44.647Z,17024
2016-06-11T09:54:12.634Z,17056
2016-06-11T09:54:44.465Z,17472
2016-06-11T09:55:44.531Z,18336
2016-06-11T09:56:44.549Z,19232
2016-06-11T09:57:45.163Z,20544
2016-06-11T09:58:44.556Z,22304
2016-06-11T09:59:44.590Z,25632
2016-06-11T10:00:45.155Z,24192
2016-06-11T10:01:58.659Z,23168
2016-06-11T10:02:59.068Z,21088
2016-06-11T10:03:44.603Z,18048
2016-06-11T10:04:45.043Z,18016
2016-06-11T10:05:44.860Z,18176
2016-06-11T10:06:44.690Z,18272
2016-06-11T10:07:44.786Z,18816
2016-06-11T10:08:45.039Z,20480
2016-06-11T10:09:44.981Z,20480
2016-06-11T10:10:44.687Z,20928
2016-06-11T10:11:44.736Z,21312
2016-06-11T10:12:44.739Z,21984
2016-06-11T10:13:44.742Z,21920
2016-06-11T10:14:45.215Z,22208
2016-06-11T10:15:44.780Z,22912
2016-06-11T10:16:44.830Z,24864
2016-06-11T10:17:44.802Z,28864
2016-06-11T10:18:44.820Z,29440
2016-06-11T10:19:44.559Z,27968
2016-06-11T10:20:45.045Z,25664
2016-06-11T10:21:44.408Z,23936
2016-06-11T10:22:44.864Z,24032
2016-06-11T10:23:45.101Z,24736
2016-06-11T10:24:44.682Z,24256
2016-06-11T10:25:44.982Z,24480
2016-06-11T10:26:45.158Z,24736
2016-06-11T10:27:45.597Z,25856
2016-06-11T10:28:45.008Z,27360
2016-06-11T10:29:45.213Z,33600
2016-06-11T10:30:45.014Z,41696
2016-06-11T10:31:45.267Z,44064
2016-06-11T10:32:44.879Z,47424
2016-06-11T10:33:45.071Z,45056
2016-06-11T10:34:45.073Z,44640
2016-06-11T10:35:44.951Z,44544
2016-06-11T10:36:44.611Z,42432
2016-06-11T10:37:45.113Z,38688
2016-06-11T10:38:45.116Z,35136
2016-06-11T10:39:44.885Z,31584
2016-06-11T10:40:45.169Z,27296
2016-06-11T10:41:45.376Z,25376
2016-06-11T10:42:45.190Z,24256
2016-06-11T10:43:59.491Z,24352
2016-06-11T10:44:45.432Z,24128
2016-06-11T10:45:45.263Z,24160
2016-06-11T10:46:45.563Z,24064
2016-06-11T10:47:45.488Z,24032
2016-06-11T10:48:45.351Z,23648
2016-06-11T10:49:45.494Z,23520
2016-06-11T10:50:45.341Z,23584
2016-06-11T10:51:45.359Z,23680
2016-06-11T10:52:45.769Z,23680
2016-06-11T10:53:45.427Z,23552
2016-06-11T10:54:45.385Z,23456
2016-06-11T10:56:59.562Z,23136
2016-06-11T10:57:45.487Z,22784
2016-06-11T10:58:45.475Z,22496
2016-06-11T10:59:45.478Z,22176
2016-06-11T11:00:45.496Z,21664
2016-06-11T11:01:46.327Z,21216
2016-06-11T11:02:45.831Z,20736
2016-06-11T11:03:45.568Z,20128
2016-06-11T11:04:45.555Z,19744
2016-06-11T11:05:45.809Z,19264
2016-06-11T11:06:45.796Z,19072
2016-06-11T11:07:45.831Z,18976
2016-06-11T11:08:45.631Z,19008
2016-06-11T11:09:45.665Z,19552
2016-06-11T11:10:45.667Z,19936
2016-06-11T11:11:45.952Z,20352
2016-06-11T11:12:45.940Z,20800
2016-06-11T11:13:45.724Z,21376
2016-06-11T11:14:45.586Z,22176
2016-06-11T11:15:45.745Z,23200
2016-06-11T11:16:46.515Z,24320
2016-06-11T11:17:46.001Z,25280
2016-06-11T11:18:45.818Z,25984
2016-06-11T11:19:46.087Z,26080
2016-06-11T11:20:45.855Z,25376
2016-06-11T11:21:46.093Z,24416
2016-06-11T11:22:45.877Z,24896
2016-06-11T11:23:46.177Z,25248
2016-06-11T11:24:46.148Z,25408
2016-06-11T11:25:45.636Z,24704
2016-06-11T11:26:46.139Z,23968
2016-06-11T11:27:45.970Z,22688
2016-06-11T11:28:45.989Z,21984
2016-06-11T11:29:45.993Z,21184
2016-06-11T11:30:46.261Z,20192
2016-06-11T11:31:46.764Z,19936
2016-06-11T11:32:46.205Z,19744
2016-06-11T11:33:46.098Z,19200
2016-06-11T11:34:46.069Z,18592
2016-06-11T11:35:46.120Z,18048
2016-06-11T11:36:46.107Z,18016
2016-06-11T11:38:00.219Z,18464
2016-06-11T11:38:46.379Z,18784
2016-06-11T11:39:46.242Z,19200
2016-06-11T11:40:46.197Z,19328
2016-06-11T11:41:46.044Z,19360
2016-06-11T11:42:46.470Z,19520
2016-06-11T11:43:46.441Z,20064
2016-06-11T11:44:46.256Z,20384
2016-06-11T11:45:46.276Z,20352
2016-06-11T11:46:46.309Z,19840
2016-06-11T11:48:00.829Z,19552
2016-06-11T11:48:46.332Z,19904
2016-06-11T11:49:46.396Z,20480
2016-06-11T11:50:46.400Z,21216
2016-06-11T11:51:45.950Z,21632
2016-06-11T11:52:46.391Z,22304
2016-06-11T11:53:46.425Z,22752
2016-06-11T11:54:46.444Z,22912
2016-06-11T11:55:46.478Z,22272
2016-06-11T11:56:46.450Z,21408
2016-06-11T11:57:46.484Z,20096
2016-06-11T11:58:46.502Z,18848
2016-06-11T11:59:46.756Z,18240
2016-06-11T12:00:46.072Z,17632
2016-06-11T12:01:46.559Z,16768
2016-06-11T12:02:47.406Z,15712
2016-06-11T12:03:46.784Z,15008
2016-06-11T12:04:46.536Z,14356
2016-06-11T12:05:46.649Z,14148
2016-06-11T12:06:46.840Z,14548
2016-06-11T12:08:00.749Z,15616
2016-06-11T12:08:46.690Z,16192
2016-06-11T12:09:46.912Z,17024
2016-06-11T12:10:46.539Z,17440
2016-06-11T12:11:46.574Z,18144
2016-06-11T12:12:46.734Z,18976
2016-06-11T12:13:46.784Z,19200
2016-06-11T12:14:47.036Z,18624
2016-06-11T12:15:47.196Z,17984
2016-06-11T12:16:46.840Z,17440
2016-06-11T12:17:46.827Z,16448
2016-06-11T12:18:46.830Z,15424
2016-06-11T12:19:46.849Z,13788
2016-06-11T12:21:01.383Z,12484
2016-06-11T12:21:46.902Z,12252
2016-06-11T12:22:47.373Z,11952
2016-06-11T12:23:47.548Z,11688
2016-06-11T12:24:47.005Z,11944
2016-06-11T12:25:46.992Z,12460
2016-06-11T12:26:46.980Z,12404
2016-06-11T12:27:47.092Z,12860
2016-06-11T12:28:47.298Z,12892
2016-06-11T12:29:47.458Z,12804
2016-06-11T12:30:47.273Z,12068
2016-06-11T12:31:48.058Z,10944
2016-06-11T12:32:47.326Z,9720
2016-06-11T12:33:47.095Z,8640
2016-06-11T12:34:47.349Z,7424
2016-06-11T12:35:47.117Z,6376
2016-06-11T12:36:47.323Z,5632
2016-06-11T12:37:47.154Z,5084
2016-06-11T12:38:47.157Z,4600
2016-06-11T12:39:47.411Z,4276
2016-06-11T12:40:47.445Z,4096
2016-06-11T12:41:47.245Z,3988
2016-06-11T12:42:47.420Z,3864
2016-06-11T12:44:47.473Z,3552
2016-06-11T12:45:47.351Z,3372
2016-06-11T12:46:47.150Z,3196
2016-06-11T12:47:48.028Z,3068
2016-06-11T12:48:47.313Z,2972
2016-06-11T12:49:47.317Z,2864
2016-06-11T12:50:46.866Z,2772
2016-06-11T12:51:47.370Z,2712
2016-06-11T12:52:47.201Z,2664
2016-06-11T12:53:47.391Z,2616
2016-06-11T12:54:47.379Z,2548
2016-06-11T12:55:46.960Z,2476
2016-06-11T12:56:47.416Z,2396
2016-06-11T12:57:47.638Z,2332
2016-06-11T12:58:47.437Z,2300
2016-06-11T12:59:47.488Z,2272
2016-06-11T13:00:47.709Z,2264
2016-06-11T13:01:48.509Z,2264
2016-06-11T13:02:48.404Z,2268
2016-06-11T13:03:47.546Z,2260
2016-06-11T13:04:47.550Z,2280
2016-06-11T13:05:47.771Z,2316
2016-06-11T13:06:47.541Z,2364
2016-06-11T13:07:47.965Z,2408
2016-06-11T13:08:47.593Z,2464
2016-06-11T13:09:47.643Z,2524
2016-06-11T13:10:47.599Z,2576
2016-06-11T13:11:47.634Z,2612
2016-06-11T13:12:48.027Z,2640
2016-06-11T13:13:47.624Z,2660
2016-06-11T13:14:47.472Z,2680
2016-06-11T13:15:47.661Z,2736
2016-06-11T13:16:47.742Z,2812
2016-06-11T13:18:47.687Z,2956
2016-06-11T13:19:47.549Z,3020
2016-06-11T13:20:47.912Z,3092
2016-06-11T15:09:58.585Z,4084
2016-06-11T15:10:11.398Z,4112
2016-06-11T15:11:11.400Z,4204
2016-06-11T15:12:11.884Z,4308
2016-06-11T15:13:11.439Z,4388
2016-06-11T15:14:11.432Z,4464
2016-06-11T15:15:11.471Z,4540
2016-06-11T15:16:40.058Z,4564
2016-06-11T15:17:12.018Z,4544
2016-06-11T15:19:11.512Z,4352
2016-06-11T15:20:11.033Z,4232
2016-06-11T15:21:11.741Z,4124
2016-06-11T15:22:11.558Z,4052
2016-06-11T15:23:11.796Z,4004
2016-06-11T15:24:12.003Z,3988
2016-06-11T15:25:11.819Z,3992
2016-06-11T15:26:11.620Z,4012
2016-06-11T15:27:11.623Z,4032